createdAt,value
2023-01-02T12:08:18.527Z,1003.59
2023-01-02T12:09:20.144Z,1003.61
2023-01-02T12:10:19.465Z,1003.61
2023-01-02T12:11:20.298Z,1003.64
2023-01-02T12:12:19.403Z,1003.64
2023-01-02T12:13:19.426Z,1003.62
2023-01-02T12:14:19.404Z,1003.64
2023-01-02T12:15:19.401Z,1003.61
2023-01-02T12:16:19.406Z,1003.61
2023-01-02T12:17:19.410Z,1003.58
2023-01-02T12:18:19.362Z,1003.55
2023-01-02T12:19:19.361Z,1003.54
2023-01-02T12:20:19.340Z,1003.54
2023-01-02T12:21:19.344Z,1003.54
2023-01-02T12:22:19.588Z,1003.51
2023-01-02T12:23:19.298Z,1003.52
2023-01-02T12:24:19.302Z,1003.54
2023-01-02T12:25:19.270Z,1003.51
2023-01-02T12:26:19.345Z,1003.52
2023-01-02T12:27:19.266Z,1003.56
2023-01-02T12:28:19.253Z,1003.57
2023-01-02T12:29:46.966Z,1003.59
2023-01-02T12:30:19.232Z,1003.60
2023-01-02T12:31:19.335Z,1003.57
2023-01-02T12:32:19.348Z,1003.58
2023-01-02T12:33:19.221Z,1003.59
2023-01-02T12:34:19.215Z,1003.61
2023-01-02T12:35:20.088Z,1003.66
2023-01-02T12:36:19.162Z,1003.69
2023-01-02T12:37:19.389Z,1003.66
2023-01-02T12:38:22.649Z,1003.70
2023-01-02T12:39:19.160Z,1003.65
2023-01-02T12:41:36.070Z,1003.67
2023-01-02T12:42:37.131Z,1003.68
2023-01-02T12:43:37.745Z,1003.71
2023-01-02T12:44:37.043Z,1003.72
2023-01-02T12:45:37.037Z,1003.75
2023-01-02T12:46:37.069Z,1003.79
2023-01-02T12:47:37.038Z,1003.79
2023-01-02T12:48:37.066Z,1003.77
2023-01-02T12:49:37.264Z,1003.77
2023-01-02T12:50:36.988Z,1003.76
2023-01-02T12:51:36.985Z,1003.74
2023-01-02T12:52:36.966Z,1003.73
2023-01-02T12:53:42.241Z,1003.72
2023-01-02T12:54:36.979Z,1003.76
2023-01-02T12:55:36.917Z,1003.77
2023-01-02T12:56:36.913Z,1003.76
